Time;durP1;ratioP1;P1;durP2;ratioP2;P2;SDS_P1;SDS_P2;PMS_P1;PMS_P2;Temp;Humidity;BMP_temperature;BMP_pressure;BME280_temperature;BME280_humidity;BME280_pressure;Samples;Min_cycle;Max_cycle;Signal;HPM_P1;HPM_P2
2024/01/04 00:02:12;;;;;;;9.73;1.65;;;;;;;;;;5009384;28;93773;-74
2024/01/04 00:04:39;;;;;;;8.02;1.83;;;;;;;;;;5003135;28;93190;-74
2024/01/04 00:07:05;;;;;;;8.05;1.88;;;;;;;;;;5000063;28;93391;-72
2024/01/04 00:09:32;;;;;;;12.45;1.75;;;;;;;;;;4999042;28;92796;-75
2024/01/04 00:11:58;;;;;;;6.00;1.63;;;;;;;;;;5005445;28;93055;-75
2024/01/04 00:14:24;;;;;;;4.63;1.65;;;;;;;;;;5002535;28;92529;-74
2024/01/04 00:16:51;;;;;;;4.60;1.25;;;;;;;;;;5005682;28;92530;-75
2024/01/04 00:19:17;;;;;;;11.90;1.48;;;;;;;;;;4995183;28;94971;-74
2024/01/04 00:21:44;;;;;;;11.73;1.48;;;;;;;;;;4999555;28;93713;-74
2024/01/04 00:24:10;;;;;;;8.27;1.67;;;;;;;;;;5006697;28;92544;-74
2024/01/04 00:26:37;;;;;;;6.30;1.58;;;;;;;;;;5002036;28;93973;-74
2024/01/04 00:29:03;;;;;;;11.35;1.58;;;;;;;;;;5000088;28;92514;-74
2024/01/04 00:31:29;;;;;;;5.07;1.27;;;;;;;;;;5001223;28;92685;-74
2024/01/04 00:33:56;;;;;;;8.48;1.30;;;;;;;;;;5003264;28;93437;-74
2024/01/04 00:36:23;;;;;;;9.90;1.35;;;;;;;;;;5007468;28;91582;-74
2024/01/04 00:38:49;;;;;;;8.32;1.52;;;;;;;;;;5003329;28;92830;-73
2024/01/04 00:41:17;;;;;;;5.70;1.20;;;;;;;;;;5006948;28;93491;-75
2024/01/04 00:43:43;;;;;;;13.82;1.92;;;;;;;;;;4997977;28;95534;-75
2024/01/04 00:46:10;;;;;;;8.30;1.67;;;;;;;;;;5006489;28;95554;-74
2024/01/04 00:48:36;;;;;;;16.40;1.95;;;;;;;;;;4999709;28;92491;-74
2024/01/04 00:51:03;;;;;;;9.15;2.10;;;;;;;;;;4998562;28;94165;-75
2024/01/04 00:53:29;;;;;;;9.35;1.60;;;;;;;;;;5006740;28;93673;-75
2024/01/04 00:55:56;;;;;;;7.40;1.70;;;;;;;;;;5002210;28;92450;-74
2024/01/04 00:58:22;;;;;;;11.25;1.63;;;;;;;;;;5004054;28;93398;-75
2024/01/04 01:00:48;;;;;;;8.80;1.83;;;;;;;;;;4999744;28;92192;-74
2024/01/04 01:03:15;;;;;;;9.18;1.55;;;;;;;;;;5007762;28;92529;-74
2024/01/04 01:05:41;;;;;;;8.20;1.92;;;;;;;;;;5006321;28;93006;-74
2024/01/04 01:08:08;;;;;;;12.27;2.38;;;;;;;;;;5000903;28;95906;-75
2024/01/04 01:10:34;;;;;;;7.75;1.88;;;;;;;;;;4996622;28;95553;-75
2024/01/04 01:13:01;;;;;;;8.57;1.45;;;;;;;;;;5005258;28;94071;-74
2024/01/04 01:15:27;;;;;;;7.38;1.73;;;;;;;;;;5001943;28;93728;-74
2024/01/04 01:17:54;;;;;;;8.57;1.50;;;;;;;;;;5002042;28;93106;-74
2024/01/04 01:20:20;;;;;;;5.90;1.33;;;;;;;;;;4998564;28;93720;-75
2024/01/04 01:22:47;;;;;;;8.43;1.55;;;;;;;;;;5004569;28;93043;-74
2024/01/04 01:25:13;;;;;;;10.32;2.00;;;;;;;;;;4997130;28;93492;-68
2024/01/04 01:27:40;;;;;;;9.43;1.75;;;;;;;;;;4998256;28;94024;-69
2024/01/04 01:30:06;;;;;;;8.65;1.67;;;;;;;;;;5001823;28;92423;-68
2024/01/04 01:32:33;;;;;;;5.53;1.70;;;;;;;;;;4996483;28;95954;-68
2024/01/04 01:34:59;;;;;;;7.32;1.52;;;;;;;;;;4992933;28;92595;-69
2024/01/04 01:37:26;;;;;;;8.73;1.80;;;;;;;;;;5038290;27;93525;-69
2024/01/04 01:39:52;;;;;;;15.30;2.28;;;;;;;;;;5002814;28;93732;-68
2024/01/04 01:42:20;;;;;;;9.30;2.10;;;;;;;;;;4999753;28;92519;-68
2024/01/04 01:44:47;;;;;;;9.45;1.90;;;;;;;;;;4998547;28;93386;-68
2024/01/04 01:47:13;;;;;;;13.40;1.98;;;;;;;;;;5000075;28;93486;-67
2024/01/04 01:49:40;;;;;;;11.98;2.65;;;;;;;;;;5002053;28;91679;-68
2024/01/04 01:52:06;;;;;;;9.18;1.95;;;;;;;;;;5001520;28;93527;-69
2024/01/04 01:54:33;;;;;;;12.52;2.10;;;;;;;;;;5001187;28;92545;-68
2024/01/04 01:56:59;;;;;;;15.48;2.75;;;;;;;;;;4996478;28;96772;-69
2024/01/04 01:59:27;;;;;;;12.05;2.50;;;;;;;;;;5003872;28;93471;-68
2024/01/04 02:01:54;;;;;;;6.63;1.70;;;;;;;;;;5002180;28;92526;-68
2024/01/04 02:04:20;;;;;;;5.53;1.90;;;;;;;;;;5007461;28;93126;-68
2024/01/04 02:06:47;;;;;;;13.05;2.65;;;;;;;;;;4998768;28;93966;-68
2024/01/04 02:09:13;;;;;;;8.52;2.00;;;;;;;;;;5000092;28;92550;-68
2024/01/04 02:11:40;;;;;;;11.75;1.77;;;;;;;;;;5004440;28;93290;-68
2024/01/04 02:14:07;;;;;;;13.70;2.10;;;;;;;;;;5004458;28;92038;-67
2024/01/04 02:16:33;;;;;;;12.27;2.60;;;;;;;;;;5001131;28;92895;-68
2024/01/04 02:18:59;;;;;;;13.63;2.38;;;;;;;;;;4999487;28;93396;-68
2024/01/04 02:21:26;;;;;;;10.90;2.25;;;;;;;;;;4988319;28;94952;-68
2024/01/04 02:23:52;;;;;;;13.75;2.60;;;;;;;;;;4996803;28;95530;-68
2024/01/04 02:26:19;;;;;;;14.13;2.78;;;;;;;;;;4998959;28;93173;-68
2024/01/04 02:28:45;;;;;;;11.50;2.60;;;;;;;;;;4997698;28;92605;-68
2024/01/04 02:31:11;;;;;;;17.40;3.15;;;;;;;;;;5000268;28;93454;-67
2024/01/04 02:33:38;;;;;;;14.40;2.65;;;;;;;;;;5005405;28;93447;-67
2024/01/04 02:36:04;;;;;;;12.82;2.92;;;;;;;;;;4999551;28;93167;-73
2024/01/04 02:38:31;;;;;;;14.15;2.70;;;;;;;;;;5003838;28;92729;-74
2024/01/04 02:40:57;;;;;;;10.60;2.55;;;;;;;;;;4997533;28;92407;-72
2024/01/04 02:43:24;;;;;;;22.00;3.35;;;;;;;;;;4997807;28;94173;-74
2024/01/04 02:45:50;;;;;;;14.15;2.58;;;;;;;;;;5000272;28;95857;-74
2024/01/04 02:48:16;;;;;;;7.10;2.20;;;;;;;;;;4999627;28;92704;-75
2024/01/04 02:50:43;;;;;;;9.35;2.38;;;;;;;;;;5004361;28;93170;-75
2024/01/04 02:53:09;;;;;;;11.75;2.78;;;;;;;;;;5003229;28;93453;-74
2024/01/04 02:55:36;;;;;;;8.68;2.60;;;;;;;;;;5005797;28;92551;-74
2024/01/04 02:58:02;;;;;;;10.95;2.72;;;;;;;;;;4994840;28;93876;-74
2024/01/04 03:00:28;;;;;;;8.52;2.05;;;;;;;;;;4998914;28;92498;-74
2024/01/04 03:02:55;;;;;;;12.30;2.67;;;;;;;;;;5003842;28;93142;-74
2024/01/04 03:05:21;;;;;;;7.60;2.67;;;;;;;;;;5003824;28;93200;-74
2024/01/04 03:07:48;;;;;;;11.10;3.30;;;;;;;;;;5000176;28;92454;-74
2024/01/04 03:10:14;;;;;;;11.45;1.98;;;;;;;;;;4999796;28;96376;-74
2024/01/04 03:12:41;;;;;;;12.73;2.40;;;;;;;;;;4998158;28;93567;-73
2024/01/04 03:15:07;;;;;;;10.38;2.28;;;;;;;;;;5002980;28;92538;-73
2024/01/04 03:17:34;;;;;;;13.90;2.50;;;;;;;;;;5008655;28;93152;-74
2024/01/04 03:20:01;;;;;;;9.43;2.33;;;;;;;;;;4998740;28;92534;-74
2024/01/04 03:22:28;;;;;;;10.32;2.40;;;;;;;;;;5001359;28;92802;-73
2024/01/04 03:24:54;;;;;;;6.55;1.73;;;;;;;;;;4999458;28;93398;-74
2024/01/04 03:27:20;;;;;;;19.42;2.20;;;;;;;;;;5002001;28;91923;-74
2024/01/04 03:29:47;;;;;;;6.95;1.55;;;;;;;;;;4999394;28;92617;-74
2024/01/04 03:32:13;;;;;;;11.77;2.03;;;;;;;;;;5000976;28;94013;-74
2024/01/04 03:34:39;;;;;;;8.73;2.45;;;;;;;;;;5000568;28;95979;-74
2024/01/04 03:37:06;;;;;;;6.30;2.17;;;;;;;;;;4999881;28;95457;-74
2024/01/04 03:39:32;;;;;;;6.90;2.10;;;;;;;;;;4998593;28;92530;-74
2024/01/04 03:41:59;;;;;;;7.65;2.58;;;;;;;;;;4992920;28;93456;-73
2024/01/04 03:44:25;;;;;;;9.30;1.60;;;;;;;;;;5005700;28;93692;-73
2024/01/04 03:46:51;;;;;;;7.30;1.73;;;;;;;;;;5004867;28;92464;-73
2024/01/04 03:49:18;;;;;;;6.78;1.80;;;;;;;;;;5001546;28;93116;-74
2024/01/04 03:51:44;;;;;;;12.68;1.63;;;;;;;;;;4999862;28;93656;-74
2024/01/04 03:54:11;;;;;;;9.90;1.63;;;;;;;;;;5001834;28;92670;-72
2024/01/04 03:56:38;;;;;;;8.60;2.15;;;;;;;;;;5000930;28;94302;-73
2024/01/04 03:59:04;;;;;;;6.03;1.77;;;;;;;;;;5008199;28;96944;-73
2024/01/04 04:01:31;;;;;;;13.88;2.75;;;;;;;;;;5008426;28;95800;-73
2024/01/04 04:03:57;;;;;;;8.90;2.00;;;;;;;;;;5003375;28;93635;-73
2024/01/04 04:06:23;;;;;;;12.10;2.10;;;;;;;;;;5000500;28;92518;-73
2024/01/04 04:08:50;;;;;;;6.05;1.55;;;;;;;;;;5001938;28;93644;-73
2024/01/04 04:11:17;;;;;;;5.68;1.40;;;;;;;;;;5001671;28;93917;-73
2024/01/04 04:13:44;;;;;;;8.45;2.03;;;;;;;;;;5002673;28;92476;-73
2024/01/04 04:16:10;;;;;;;12.05;2.00;;;;;;;;;;5004637;28;94173;-74
2024/01/04 04:18:36;;;;;;;2.95;1.60;;;;;;;;;;5003547;28;93447;-74
2024/01/04 04:21:03;;;;;;;9.25;2.05;;;;;;;;;;5005665;28;92508;-73
2024/01/04 04:23:30;;;;;;;9.43;1.95;;;;;;;;;;4998041;28;96189;-73
2024/01/04 04:25:57;;;;;;;5.68;1.75;;;;;;;;;;5003691;28;93666;-74
2024/01/04 04:28:23;;;;;;;7.22;1.90;;;;;;;;;;5005769;28;93152;-73
2024/01/04 04:30:50;;;;;;;5.68;2.10;;;;;;;;;;5000117;28;93948;-74
2024/01/04 04:33:16;;;;;;;10.05;1.83;;;;;;;;;;5006587;28;92383;-73
2024/01/04 04:35:43;;;;;;;8.27;1.70;;;;;;;;;;4996994;28;95195;-74
2024/01/04 04:38:21;;;;;;;10.02;2.03;;;;;;;;;;5004638;28;93643;-73
2024/01/04 04:40:48;;;;;;;4.82;1.70;;;;;;;;;;5004122;28;91887;-73
2024/01/04 04:43:14;;;;;;;6.57;1.98;;;;;;;;;;5004348;28;93263;-74
2024/01/04 04:45:40;;;;;;;3.05;1.52;;;;;;;;;;5000813;28;93984;-74
2024/01/04 04:48:07;;;;;;;8.07;1.38;;;;;;;;;;4994325;28;95099;-73
2024/01/04 04:50:33;;;;;;;5.53;1.27;;;;;;;;;;4998910;28;93297;-74
2024/01/04 04:53:00;;;;;;;4.93;1.30;;;;;;;;;;5002506;28;92854;-73
2024/01/04 04:55:26;;;;;;;5.78;0.75;;;;;;;;;;5000835;28;93117;-73
2024/01/04 04:57:52;;;;;;;2.58;0.93;;;;;;;;;;5000312;28;93422;-73
2024/01/04 05:00:19;;;;;;;2.67;0.82;;;;;;;;;;5003853;28;95096;-73
2024/01/04 05:02:45;;;;;;;1.63;0.80;;;;;;;;;;5034287;27;94282;-74
2024/01/04 05:05:12;;;;;;;3.47;1.27;;;;;;;;;;5006898;28;92978;-74
2024/01/04 05:07:38;;;;;;;5.95;1.10;;;;;;;;;;5006337;28;93201;-74
2024/01/04 05:10:05;;;;;;;2.63;1.13;;;;;;;;;;5000290;28;93398;-73
2024/01/04 05:12:31;;;;;;;3.33;1.00;;;;;;;;;;4998433;28;94834;-74
2024/01/04 05:14:58;;;;;;;1.65;0.88;;;;;;;;;;5001912;28;96898;-73
2024/01/04 05:17:25;;;;;;;3.03;0.80;;;;;;;;;;5002628;28;94080;-73
2024/01/04 05:19:51;;;;;;;2.38;1.00;;;;;;;;;;5003262;28;93527;-74
2024/01/04 05:22:19;;;;;;;3.10;1.67;;;;;;;;;;5002154;28;93507;-73
2024/01/04 05:24:45;;;;;;;5.13;1.27;;;;;;;;;;5003801;28;93425;-75
2024/01/04 05:27:11;;;;;;;4.97;1.08;;;;;;;;;;5004576;28;92517;-74
2024/01/04 05:29:38;;;;;;;2.75;0.80;;;;;;;;;;5003292;28;92735;-74
2024/01/04 05:32:04;;;;;;;3.75;0.93;;;;;;;;;;5000517;28;92423;-74
2024/01/04 05:34:32;;;;;;;5.95;1.05;;;;;;;;;;4999370;28;93087;-74
2024/01/04 05:36:59;;;;;;;6.35;0.80;;;;;;;;;;4995858;28;95787;-74
2024/01/04 05:39:26;;;;;;;2.92;0.98;;;;;;;;;;4994740;28;92808;-74
2024/01/04 05:41:52;;;;;;;4.60;0.90;;;;;;;;;;4999713;28;93401;-73
2024/01/04 05:44:18;;;;;;;1.92;1.08;;;;;;;;;;4996477;28;93922;-73
2024/01/04 05:46:45;;;;;;;3.88;0.90;;;;;;;;;;4999556;28;92771;-74
2024/01/04 05:49:11;;;;;;;7.15;1.55;;;;;;;;;;5003373;28;93843;-74
2024/01/04 05:51:38;;;;;;;2.90;1.10;;;;;;;;;;4995379;28;92594;-73
2024/01/04 05:54:08;;;;;;;3.42;1.30;;;;;;;;;;5002602;28;93114;-74
2024/01/04 05:56:35;;;;;;;3.53;1.38;;;;;;;;;;4997129;28;92622;-72
2024/01/04 05:59:02;;;;;;;3.03;1.40;;;;;;;;;;4994297;28;92659;-73
2024/01/04 06:01:28;;;;;;;4.78;1.40;;;;;;;;;;4997200;28;94912;-73
2024/01/04 06:03:54;;;;;;;4.47;1.30;;;;;;;;;;5000854;28;93435;-74
2024/01/04 06:06:21;;;;;;;2.63;1.30;;;;;;;;;;5001265;28;92429;-69
2024/01/04 06:08:48;;;;;;;3.72;1.15;;;;;;;;;;5007765;28;93921;-68
2024/01/04 06:11:18;;;;;;;3.90;1.33;;;;;;;;;;4997498;28;92520;-68
2024/01/04 06:13:44;;;;;;;1.20;1.10;;;;;;;;;;4999696;28;93192;-68
2024/01/04 06:16:10;;;;;;;6.93;1.17;;;;;;;;;;4998250;28;93439;-68
2024/01/04 06:18:37;;;;;;;4.75;0.93;;;;;;;;;;4998140;28;91660;-69
2024/01/04 06:21:05;;;;;;;3.25;0.95;;;;;;;;;;4999465;28;92623;-68
2024/01/04 06:23:31;;;;;;;3.65;1.00;;;;;;;;;;5004919;28;93417;-68
2024/01/04 06:25:58;;;;;;;3.97;1.38;;;;;;;;;;4999856;28;94929;-68
2024/01/04 06:28:24;;;;;;;5.88;1.45;;;;;;;;;;5003773;28;95791;-68
2024/01/04 06:30:50;;;;;;;3.08;1.23;;;;;;;;;;5008120;28;93450;-67
2024/01/04 06:33:17;;;;;;;2.83;1.42;;;;;;;;;;5001736;28;93102;-68
2024/01/04 06:35:43;;;;;;;2.45;1.23;;;;;;;;;;5002736;28;93411;-68
2024/01/04 06:38:10;;;;;;;2.85;1.05;;;;;;;;;;4996056;28;92449;-68
2024/01/04 06:40:37;;;;;;;4.82;1.02;;;;;;;;;;5005853;28;93111;-68
2024/01/04 06:43:08;;;;;;;5.28;1.38;;;;;;;;;;4996289;28;93010;-68
2024/01/04 06:45:35;;;;;;;;;;;;;;;;;;4997379;28;94067;-68
2024/01/04 06:48:02;;;;;;;4.75;1.10;;;;;;;;;;4998447;28;123985;-68
2024/01/04 06:50:29;;;;;;;2.58;1.40;;;;;;;;;;4999552;28;96061;-68
2024/01/04 06:52:56;;;;;;;1.90;0.90;;;;;;;;;;4999868;28;93555;-68
2024/01/04 06:55:23;;;;;;;7.88;1.25;;;;;;;;;;5001942;28;93430;-67
2024/01/04 06:57:49;;;;;;;2.88;1.13;;;;;;;;;;5002545;28;92481;-68
2024/01/04 07:00:15;;;;;;;5.78;1.27;;;;;;;;;;5005107;28;93141;-68
2024/01/04 07:02:42;;;;;;;3.95;1.40;;;;;;;;;;5001258;28;93879;-68
2024/01/04 07:05:11;;;;;;;5.78;1.30;;;;;;;;;;4999782;28;92479;-68
2024/01/04 07:07:38;;;;;;;5.00;1.90;;;;;;;;;;4999960;28;93065;-68
2024/01/04 07:10:05;;;;;;;5.85;1.58;;;;;;;;;;5001133;28;93393;-67
2024/01/04 07:12:31;;;;;;;6.30;1.33;;;;;;;;;;4994599;28;92664;-67
2024/01/04 07:14:58;;;;;;;7.80;1.85;;;;;;;;;;4999077;28;95124;-67
2024/01/04 07:17:24;;;;;;;10.00;1.70;;;;;;;;;;4999323;28;94374;-73
2024/01/04 07:19:50;;;;;;;7.43;1.58;;;;;;;;;;5003326;28;93535;-73
2024/01/04 07:22:18;;;;;;;5.88;1.48;;;;;;;;;;4998149;28;95726;-73
2024/01/04 07:24:45;;;;;;;8.52;1.42;;;;;;;;;;4991658;28;95329;-73
2024/01/04 07:27:11;;;;;;;3.65;1.38;;;;;;;;;;4995857;28;95028;-73
2024/01/04 07:29:38;;;;;;;6.55;1.50;;;;;;;;;;4997536;28;93391;-73
2024/01/04 07:32:05;;;;;;;10.25;1.90;;;;;;;;;;5003776;28;91733;-74
2024/01/04 07:34:32;;;;;;;5.45;1.92;;;;;;;;;;5009249;28;93854;-74
2024/01/04 07:36:59;;;;;;;7.55;1.75;;;;;;;;;;5005797;28;93807;-73
2024/01/04 07:39:26;;;;;;;5.43;1.98;;;;;;;;;;4998162;28;94844;-74
2024/01/04 07:41:52;;;;;;;8.20;3.15;;;;;;;;;;5003375;28;94290;-74
2024/01/04 07:44:18;;;;;;;6.32;2.80;;;;;;;;;;5004733;28;92572;-74
2024/01/04 07:46:45;;;;;;;5.38;2.58;;;;;;;;;;4995893;28;93449;-74
2024/01/04 07:49:11;;;;;;;6.25;2.55;;;;;;;;;;5007939;28;94429;-73
2024/01/04 07:51:38;;;;;;;6.18;2.72;;;;;;;;;;5000870;28;92494;-74
2024/01/04 07:54:05;;;;;;;8.25;3.15;;;;;;;;;;5002653;28;92500;-74
2024/01/04 07:56:31;;;;;;;8.52;3.20;;;;;;;;;;5006609;28;92603;-73
2024/01/04 07:58:58;;;;;;;7.90;4.00;;;;;;;;;;5005562;28;92936;-74
2024/01/04 08:01:24;;;;;;;12.43;3.92;;;;;;;;;;4999812;28;96651;-71
2024/01/04 08:03:51;;;;;;;8.77;3.92;;;;;;;;;;4999967;28;94928;-71
2024/01/04 08:06:17;;;;;;;8.48;4.18;;;;;;;;;;4995923;28;96856;-71
2024/01/04 08:08:44;;;;;;;17.00;4.13;;;;;;;;;;5003080;28;93383;-71
2024/01/04 08:11:10;;;;;;;9.43;3.80;;;;;;;;;;4996226;28;92612;-72
2024/01/04 08:13:37;;;;;;;12.05;4.22;;;;;;;;;;5000504;28;94095;-76
2024/01/04 08:16:03;;;;;;;7.20;3.63;;;;;;;;;;4999555;28;93440;-72
2024/01/04 08:18:31;;;;;;;8.70;3.97;;;;;;;;;;5005098;28;92502;-74
2024/01/04 08:21:01;;;;;;;13.40;3.67;;;;;;;;;;5003163;28;93108;-70
2024/01/04 08:23:30;;;;;;;10.50;3.97;;;;;;;;;;5003936;28;92530;-71
2024/01/04 08:25:56;;;;;;;8.77;4.05;;;;;;;;;;5000008;28;93216;-70
2024/01/04 08:28:22;;;;;;;6.75;3.17;;;;;;;;;;5002004;28;95842;-71
2024/01/04 08:30:49;;;;;;;10.73;4.00;;;;;;;;;;5000763;28;92768;-71
2024/01/04 08:33:15;;;;;;;6.75;3.58;;;;;;;;;;5003038;28;93406;-72
2024/01/04 08:35:42;;;;;;;10.65;3.47;;;;;;;;;;5003006;28;94409;-69
2024/01/04 08:38:08;;;;;;;5.90;2.80;;;;;;;;;;4996260;28;92444;-71
2024/01/04 08:40:36;;;;;;;4.07;2.55;;;;;;;;;;5004880;28;93272;-71
2024/01/04 08:43:03;;;;;;;9.68;3.08;;;;;;;;;;4996059;28;92727;-73
2024/01/04 08:45:30;;;;;;;7.13;3.08;;;;;;;;;;4998538;28;91909;-76
2024/01/04 08:47:56;;;;;;;7.93;3.15;;;;;;;;;;4998981;28;93753;-75
2024/01/04 08:50:23;;;;;;;11.63;3.33;;;;;;;;;;4996049;28;93110;-70
2024/01/04 08:52:49;;;;;;;5.95;3.42;;;;;;;;;;4990674;28;94947;-71
2024/01/04 08:55:18;;;;;;;7.32;2.92;;;;;;;;;;4994654;28;93809;-71
2024/01/04 08:57:44;;;;;;;8.20;2.72;;;;;;;;;;4994649;28;92638;-71
2024/01/04 09:00:11;;;;;;;6.13;2.90;;;;;;;;;;4999533;28;93150;-72
2024/01/04 09:02:37;;;;;;;4.85;2.78;;;;;;;;;;4997525;28;93479;-70
2024/01/04 09:05:04;;;;;;;7.60;3.25;;;;;;;;;;5002521;28;93201;-69
2024/01/04 09:07:31;;;;;;;11.75;3.80;;;;;;;;;;4999803;28;93647;-69
2024/01/04 09:09:57;;;;;;;8.80;3.47;;;;;;;;;;5003181;28;91655;-69
2024/01/04 09:12:23;;;;;;;14.18;3.60;;;;;;;;;;4996613;28;92847;-69
2024/01/04 09:14:50;;;;;;;13.40;3.25;;;;;;;;;;5003410;28;93437;-70
2024/01/04 09:17:17;;;;;;;6.70;3.78;;;;;;;;;;4998843;28;94954;-71
2024/01/04 09:19:43;;;;;;;6.20;3.20;;;;;;;;;;5004620;28;95851;-71
2024/01/04 09:22:10;;;;;;;9.60;3.35;;;;;;;;;;4996498;28;92605;-71
2024/01/04 09:24:36;;;;;;;7.55;3.42;;;;;;;;;;5004709;28;93343;-71
2024/01/04 09:27:03;;;;;;;4.75;3.83;;;;;;;;;;5004158;28;93553;-70
2024/01/04 09:29:30;;;;;;;8.93;3.45;;;;;;;;;;4999537;28;92437;-71
2024/01/04 09:31:56;;;;;;;11.43;4.32;;;;;;;;;;5000804;28;93422;-70
2024/01/04 09:34:24;;;;;;;7.03;3.55;;;;;;;;;;4998781;28;92719;-69
2024/01/04 09:36:50;;;;;;;5.18;3.30;;;;;;;;;;4996018;28;93362;-69
2024/01/04 09:39:19;;;;;;;6.70;3.38;;;;;;;;;;4999468;28;94156;-66
2024/01/04 09:41:50;;;;;;;6.45;3.40;;;;;;;;;;4994464;28;96603;-66
2024/01/04 09:44:16;;;;;;;7.13;3.33;;;;;;;;;;5005280;28;92383;-66
2024/01/04 09:46:43;;;;;;;6.10;3.83;;;;;;;;;;5004483;28;93113;-65
2024/01/04 09:49:10;;;;;;;9.25;3.88;;;;;;;;;;4997548;28;92660;-65
2024/01/04 09:51:38;;;;;;;8.85;4.20;;;;;;;;;;5000616;28;93707;-65
2024/01/04 09:54:08;;;;;;;9.95;3.72;;;;;;;;;;5003979;28;94451;-66
2024/01/04 09:56:39;;;;;;;9.70;4.03;;;;;;;;;;5000816;28;92736;-65
2024/01/04 09:59:06;;;;;;;7.28;4.13;;;;;;;;;;5000815;28;93072;-65
2024/01/04 10:01:36;;;;;;;10.75;3.95;;;;;;;;;;5005453;28;93435;-65
2024/01/04 10:04:04;;;;;;;4.53;3.00;;;;;;;;;;5000034;28;92495;-65
2024/01/04 10:06:35;;;;;;;7.15;3.05;;;;;;;;;;5004406;28;94857;-65
2024/01/04 10:09:35;;;;;;;5.60;2.97;;;;;;;;;;4998627;28;95116;-65
2024/01/04 10:12:05;;;;;;;4.65;3.17;;;;;;;;;;4972087;28;93226;-65
2024/01/04 10:14:32;;;;;;;6.80;2.85;;;;;;;;;;5003924;28;94002;-65
2024/01/04 10:16:59;;;;;;;7.70;3.30;;;;;;;;;;5003028;28;92433;-66
2024/01/04 10:19:26;;;;;;;6.85;3.50;;;;;;;;;;4998286;28;93061;-65
2024/01/04 10:21:52;;;;;;;9.93;4.18;;;;;;;;;;4998698;28;95136;-65
2024/01/04 10:24:23;;;;;;;4.88;3.10;;;;;;;;;;5008260;28;91852;-64
2024/01/04 10:26:57;;;;;;;6.57;3.13;;;;;;;;;;4996393;28;92541;-65
2024/01/04 10:29:25;;;;;;;8.70;3.55;;;;;;;;;;5003550;28;94207;-64
2024/01/04 10:32:10;;;;;;;8.27;3.28;;;;;;;;;;5000221;28;94936;-63
2024/01/04 10:34:37;;;;;;;5.88;3.08;;;;;;;;;;5004787;28;93390;-65
2024/01/04 10:37:08;;;;;;;5.97;3.20;;;;;;;;;;5002211;28;92360;-64
2024/01/04 10:39:38;;;;;;;6.45;2.65;;;;;;;;;;5002256;28;92986;-66
2024/01/04 10:42:05;;;;;;;7.53;2.60;;;;;;;;;;5001253;28;93786;-64
2024/01/04 10:44:35;;;;;;;5.40;2.83;;;;;;;;;;5002609;28;92463;-64
2024/01/04 10:47:02;;;;;;;7.90;2.67;;;;;;;;;;4999943;28;94458;-65
2024/01/04 10:49:29;;;;;;;7.75;2.50;;;;;;;;;;5003957;28;91923;-71
2024/01/04 10:51:57;;;;;;;4.50;2.33;;;;;;;;;;5005501;28;92764;-70
2024/01/04 10:54:33;;;;;;;5.15;2.13;;;;;;;;;;5002511;28;93430;-71
2024/01/04 10:57:00;;;;;;;3.92;2.15;;;;;;;;;;4993118;28;94885;-72
2024/01/04 10:59:32;;;;;;;3.90;2.10;;;;;;;;;;5001084;28;97853;-71
2024/01/04 11:01:58;;;;;;;6.20;2.17;;;;;;;;;;5000779;28;93759;-71
2024/01/04 11:04:25;;;;;;;7.28;3.00;;;;;;;;;;5002312;28;92594;-72
2024/01/04 11:06:57;;;;;;;7.70;2.60;;;;;;;;;;5006316;28;93534;-72
2024/01/04 11:09:24;;;;;;;6.60;2.40;;;;;;;;;;5003500;28;93297;-71
2024/01/04 11:11:54;;;;;;;6.60;1.83;;;;;;;;;;5005493;28;92482;-71
2024/01/04 11:14:21;;;;;;;7.07;2.33;;;;;;;;;;5006937;28;93065;-72
2024/01/04 11:17:02;;;;;;;13.55;2.60;;;;;;;;;;5004001;28;92569;-71
2024/01/04 11:19:40;;;;;;;5.80;2.45;;;;;;;;;;5004067;28;93278;-72
2024/01/04 11:22:07;;;;;;;6.47;2.35;;;;;;;;;;5002843;28;95865;-71
2024/01/04 11:24:52;;;;;;;4.47;1.77;;;;;;;;;;5007192;28;92466;-71
2024/01/04 11:27:19;;;;;;;9.23;1.90;;;;;;;;;;5035732;27;93117;-71
2024/01/04 11:29:48;;;;;;;3.90;1.30;;;;;;;;;;4998324;28;93599;-71
2024/01/04 11:32:15;;;;;;;4.72;1.50;;;;;;;;;;5000533;28;92760;-71
2024/01/04 11:34:43;;;;;;;6.32;1.75;;;;;;;;;;5003570;28;93349;-74
2024/01/04 11:37:11;;;;;;;2.72;1.35;;;;;;;;;;5009202;28;93576;-69
2024/01/04 11:39:54;;;;;;;2.33;1.20;;;;;;;;;;5003953;28;93440;-69
2024/01/04 11:42:29;;;;;;;14.32;2.10;;;;;;;;;;5000692;28;93445;-71
2024/01/04 11:44:57;;;;;;;3.50;1.33;;;;;;;;;;5001146;28;92473;-70
2024/01/04 11:47:24;;;;;;;3.47;1.17;;;;;;;;;;5002780;28;94903;-71
2024/01/04 11:49:55;;;;;;;3.63;0.98;;;;;;;;;;5003508;28;96714;-69
2024/01/04 11:52:26;;;;;;;6.10;1.60;;;;;;;;;;5002570;28;92566;-70
2024/01/04 11:54:53;;;;;;;4.70;1.35;;;;;;;;;;5007815;28;92513;-70
2024/01/04 11:57:23;;;;;;;2.35;1.25;;;;;;;;;;5002044;28;93437;-69
2024/01/04 11:59:50;;;;;;;5.95;1.60;;;;;;;;;;4999464;28;92436;-74
2024/01/04 12:02:17;;;;;;;6.18;1.75;;;;;;;;;;5002654;28;92504;-68
2024/01/04 12:04:43;;;;;;;3.20;1.40;;;;;;;;;;5003443;28;91801;-68
2024/01/04 12:07:10;;;;;;;6.07;1.85;;;;;;;;;;5005852;28;93205;-68
2024/01/04 12:09:37;;;;;;;2.60;1.20;;;;;;;;;;4998711;28;93766;-68
2024/01/04 12:12:05;;;;;;;5.07;1.40;;;;;;;;;;5001195;28;94918;-68
2024/01/04 12:14:33;;;;;;;6.63;1.60;;;;;;;;;;5004610;28;95955;-70
2024/01/04 12:17:00;;;;;;;7.18;1.55;;;;;;;;;;4999456;28;93395;-70
2024/01/04 12:19:27;;;;;;;4.97;1.88;;;;;;;;;;5008676;28;92454;-69
2024/01/04 12:21:54;;;;;;;9.25;1.75;;;;;;;;;;5003479;28;93572;-69
2024/01/04 12:24:21;;;;;;;7.53;2.30;;;;;;;;;;5003383;28;92525;-69
2024/01/04 12:26:48;;;;;;;15.48;4.50;;;;;;;;;;5001898;28;92393;-70
2024/01/04 12:29:14;;;;;;;14.98;3.80;;;;;;;;;;4995364;28;92902;-68
2024/01/04 12:31:44;;;;;;;10.73;3.88;;;;;;;;;;5005229;28;92553;-71
2024/01/04 12:34:11;;;;;;;20.47;6.40;;;;;;;;;;5002236;28;92984;-72
2024/01/04 12:36:38;;;;;;;13.43;4.68;;;;;;;;;;5001898;28;95825;-70
2024/01/04 12:39:11;;;;;;;5.78;1.40;;;;;;;;;;5002014;28;92473;-70
2024/01/04 12:41:39;;;;;;;4.25;0.95;;;;;;;;;;5011261;28;93140;-68
2024/01/04 12:44:07;;;;;;;1.70;0.90;;;;;;;;;;5002149;28;92445;-71
2024/01/04 12:46:33;;;;;;;3.80;1.25;;;;;;;;;;4999589;28;93184;-72
2024/01/04 12:49:09;;;;;;;3.47;1.30;;;;;;;;;;5001121;28;93667;-71
2024/01/04 12:51:38;;;;;;;4.05;0.98;;;;;;;;;;5001169;28;92461;-71
2024/01/04 12:54:05;;;;;;;5.82;1.33;;;;;;;;;;5008054;28;93397;-71
2024/01/04 12:56:32;;;;;;;3.47;1.05;;;;;;;;;;4999841;28;93741;-71
2024/01/04 12:59:01;;;;;;;2.80;0.90;;;;;;;;;;4992457;28;92444;-70
2024/01/04 13:01:28;;;;;;;3.10;1.00;;;;;;;;;;4996754;28;95049;-72
2024/01/04 13:03:55;;;;;;;3.08;1.10;;;;;;;;;;4994402;28;92863;-71
2024/01/04 13:06:22;;;;;;;2.08;1.10;;;;;;;;;;4993352;28;93303;-70
2024/01/04 13:08:50;;;;;;;1.88;0.90;;;;;;;;;;5002311;28;93416;-71
2024/01/04 13:11:17;;;;;;;7.10;1.67;;;;;;;;;;5000494;28;92528;-72
2024/01/04 13:13:44;;;;;;;2.40;0.93;;;;;;;;;;5004625;28;93744;-70
2024/01/04 13:16:11;;;;;;;4.05;1.10;;;;;;;;;;5002763;28;93410;-71
2024/01/04 13:18:37;;;;;;;5.85;2.15;;;;;;;;;;5005420;28;91699;-70
2024/01/04 13:21:04;;;;;;;6.80;2.17;;;;;;;;;;4999182;28;92467;-71
2024/01/04 13:23:30;;;;;;;3.00;1.38;;;;;;;;;;4999124;28;93663;-69
2024/01/04 13:25:57;;;;;;;2.65;1.20;;;;;;;;;;5007227;28;94917;-72
2024/01/04 13:28:24;;;;;;;6.70;1.52;;;;;;;;;;5001719;28;93473;-73
2024/01/04 13:30:50;;;;;;;2.63;1.27;;;;;;;;;;5002594;28;93122;-72
2024/01/04 13:33:17;;;;;;;5.30;1.23;;;;;;;;;;4997301;28;93619;-72
2024/01/04 13:35:45;;;;;;;4.22;1.10;;;;;;;;;;5002437;28;93420;-72
2024/01/04 13:38:12;;;;;;;5.15;1.33;;;;;;;;;;5002892;28;92641;-72
2024/01/04 13:40:38;;;;;;;6.15;1.40;;;;;;;;;;5002969;28;93227;-72
2024/01/04 13:43:04;;;;;;;2.72;1.25;;;;;;;;;;5003005;28;92749;-71
2024/01/04 13:45:30;;;;;;;3.80;1.42;;;;;;;;;;4999302;28;92780;-72
2024/01/04 13:47:57;;;;;;;4.30;1.27;;;;;;;;;;5007516;28;93140;-74
2024/01/04 13:50:25;;;;;;;2.78;0.93;;;;;;;;;;5000754;28;94844;-75
2024/01/04 13:52:52;;;;;;;0.90;0.60;;;;;;;;;;5003607;28;98830;-74
2024/01/04 13:55:19;;;;;;;4.13;1.08;;;;;;;;;;5001895;28;93536;-75
2024/01/04 13:57:46;;;;;;;3.55;1.15;;;;;;;;;;5003723;28;92413;-75
2024/01/04 14:00:13;;;;;;;6.00;1.33;;;;;;;;;;5000644;28;93076;-74
2024/01/04 14:02:39;;;;;;;0.60;0.60;;;;;;;;;;5001310;28;93281;-76
2024/01/04 14:05:08;;;;;;;4.25;1.00;;;;;;;;;;4999024;28;92522;-79
2024/01/04 14:07:34;;;;;;;3.28;0.93;;;;;;;;;;5003125;28;93277;-79
2024/01/04 14:10:02;;;;;;;10.32;1.10;;;;;;;;;;5000526;28;92516;-74
2024/01/04 14:12:29;;;;;;;1.77;1.58;;;;;;;;;;5000008;28;93137;-78
2024/01/04 14:14:55;;;;;;;2.38;1.63;;;;;;;;;;4991776;28;95794;-74
2024/01/04 14:17:23;;;;;;;4.40;0.98;;;;;;;;;;4996232;28;92796;-72
2024/01/04 14:19:49;;;;;;;2.88;0.60;;;;;;;;;;5000183;28;93453;-65
2024/01/04 14:22:16;;;;;;;4.00;1.40;;;;;;;;;;5001395;28;93967;-68
2024/01/04 14:24:42;;;;;;;4.57;1.60;;;;;;;;;;5002208;28;92863;-70
2024/01/04 14:27:09;;;;;;;6.05;2.17;;;;;;;;;;5000936;28;93422;-68
2024/01/04 14:29:35;;;;;;;2.35;0.90;;;;;;;;;;5003392;28;93500;-65
2024/01/04 14:32:02;;;;;;;4.70;1.20;;;;;;;;;;4997002;28;93836;-65
2024/01/04 14:34:28;;;;;;;1.98;1.10;;;;;;;;;;5000295;28;93738;-65
2024/01/04 14:36:55;;;;;;;3.33;1.10;;;;;;;;;;5005411;28;92488;-67
2024/01/04 14:39:21;;;;;;;3.03;2.00;;;;;;;;;;4993026;28;94814;-66
2024/01/04 14:41:48;;;;;;;5.47;1.60;;;;;;;;;;5000185;28;92478;-66